Time;durP1;ratioP1;P1;durP2;ratioP2;P2;SDS_P1;SDS_P2;PMS_P1;PMS_P2;Temp;Humidity;BMP_temperature;BMP_pressure;BME280_temperature;BME280_humidity;BME280_pressure;Samples;Min_cycle;Max_cycle;Signal;HPM_P1;HPM_P2
2022/09/06 00:01:21;;;;;;;3.10;1.80;;;;;;;;;;7391315;19;20005;-68
2022/09/06 00:03:46;;;;;;;2.78;1.60;;;;;;;;;;7391793;19;20013;-68
2022/09/06 00:06:14;;;;;;;3.13;1.70;;;;;;;;;;7393652;19;19999;-68
2022/09/06 00:08:40;;;;;;;2.45;1.63;;;;;;;;;;7390844;19;20010;-69
2022/09/06 00:11:06;;;;;;;4.70;2.08;;;;;;;;;;7393385;19;20002;-68
2022/09/06 00:13:32;;;;;;;2.22;1.52;;;;;;;;;;7391419;19;20396;-68
2022/09/06 00:16:04;;;;;;;3.25;1.85;;;;;;;;;;7393225;19;19995;-69
2022/09/06 00:18:29;;;;;;;2.55;1.38;;;;;;;;;;7391231;19;20007;-68
2022/09/06 00:20:55;;;;;;;3.10;1.95;;;;;;;;;;7391309;19;20001;-68
2022/09/06 00:23:20;;;;;;;4.68;1.92;;;;;;;;;;7392746;19;20020;-69
2022/09/06 00:25:45;;;;;;;2.00;1.60;;;;;;;;;;7392682;19;20003;-69
2022/09/06 00:28:11;;;;;;;2.92;1.83;;;;;;;;;;7392322;19;20390;-69
2022/09/06 00:30:36;;;;;;;3.67;1.80;;;;;;;;;;7392806;19;20017;-69
2022/09/06 00:33:01;;;;;;;1.98;1.42;;;;;;;;;;7392802;19;20019;-69
2022/09/06 00:35:27;;;;;;;3.17;1.80;;;;;;;;;;7392225;19;20069;-68
2022/09/06 00:37:58;;;;;;;3.60;1.60;;;;;;;;;;7392687;19;19999;-69
2022/09/06 00:40:23;;;;;;;2.58;1.50;;;;;;;;;;7391298;19;20062;-68
2022/09/06 00:42:48;;;;;;;2.47;1.55;;;;;;;;;;7390730;19;20023;-68
2022/09/06 00:45:14;;;;;;;2.97;1.90;;;;;;;;;;7391845;19;20062;-68
2022/09/06 00:47:41;;;;;;;2.58;1.65;;;;;;;;;;7392278;19;20013;-67
2022/09/06 00:50:09;;;;;;;3.92;2.00;;;;;;;;;;7390477;19;20006;-69
2022/09/06 00:52:35;;;;;;;3.38;1.70;;;;;;;;;;7391749;19;20011;-68
2022/09/06 00:55:01;;;;;;;4.20;2.47;;;;;;;;;;7390719;19;20577;-68
2022/09/06 00:57:29;;;;;;;3.72;1.83;;;;;;;;;;7391243;19;20070;-68
2022/09/06 00:59:55;;;;;;;2.38;1.42;;;;;;;;;;7387593;19;20018;-68
2022/09/06 01:02:21;;;;;;;2.95;1.55;;;;;;;;;;7389724;19;20002;-68
2022/09/06 01:04:48;;;;;;;1.58;1.48;;;;;;;;;;7390228;19;20479;-68
2022/09/06 01:07:26;;;;;;;4.22;1.80;;;;;;;;;;7389281;19;20007;-68
2022/09/06 01:10:34;;;;;;;3.15;1.73;;;;;;;;;;7382897;19;20830;-69
2022/09/06 01:13:35;;;;;;;3.78;1.88;;;;;;;;;;7385064;19;20003;-69
2022/09/06 01:16:09;;;;;;;;;;;;;;;;;;7385531;19;20019;-69
2022/09/06 01:19:11;;;;;;;2.35;1.63;;;;;;;;;;7384400;19;19926;-69
2022/09/06 01:21:51;;;;;;;4.40;1.85;;;;;;;;;;7384345;19;20007;-69
2022/09/06 01:24:55;;;;;;;2.97;1.75;;;;;;;;;;7388834;19;20076;-68
2022/09/06 01:27:53;;;;;;;1.63;1.50;;;;;;;;;;7390153;19;20003;-69
2022/09/06 01:30:20;;;;;;;7.70;1.95;;;;;;;;;;7385215;19;20007;-68
2022/09/06 01:33:15;;;;;;;2.35;1.60;;;;;;;;;;7390053;19;20010;-67
2022/09/06 01:35:54;;;;;;;5.47;1.70;;;;;;;;;;7387579;19;20016;-70
2022/09/06 01:38:20;;;;;;;2.63;1.50;;;;;;;;;;7393662;19;20014;-75
2022/09/06 01:40:45;;;;;;;2.95;1.58;;;;;;;;;;7388566;19;20002;-70
2022/09/06 01:43:17;;;;;;;4.70;1.27;;;;;;;;;;7389422;19;19999;-70
2022/09/06 01:46:15;;;;;;;2.90;1.30;;;;;;;;;;7385543;19;20440;-68
2022/09/06 01:48:46;;;;;;;1.52;1.25;;;;;;;;;;7383202;19;20006;-70
2022/09/06 01:51:30;;;;;;;2.03;0.98;;;;;;;;;;7385334;19;20015;-70
2022/09/06 01:54:14;;;;;;;2.20;1.13;;;;;;;;;;7387441;19;20028;-69
2022/09/06 01:56:57;;;;;;;1.95;1.30;;;;;;;;;;7385756;19;20010;-69
2022/09/06 02:00:00;;;;;;;1.40;1.30;;;;;;;;;;7385490;19;20320;-69
2022/09/06 02:02:47;;;;;;;2.63;1.67;;;;;;;;;;7389297;19;20005;-70
2022/09/06 02:05:21;;;;;;;1.05;0.95;;;;;;;;;;7386947;19;20022;-69
2022/09/06 02:07:48;;;;;;;1.17;1.05;;;;;;;;;;7390759;19;20025;-70
2022/09/06 02:10:26;;;;;;;1.58;1.38;;;;;;;;;;7385734;19;20003;-69
2022/09/06 02:12:54;;;;;;;1.00;1.00;;;;;;;;;;7389001;19;20017;-69
2022/09/06 02:15:24;;;;;;;2.05;1.38;;;;;;;;;;7388463;19;20015;-69
2022/09/06 02:17:58;;;;;;;1.05;0.82;;;;;;;;;;7387246;19;20006;-70
2022/09/06 02:20:28;;;;;;;1.50;1.02;;;;;;;;;;7388753;19;20397;-70
2022/09/06 02:22:55;;;;;;;1.20;1.10;;;;;;;;;;7387969;19;20007;-69
2022/09/06 02:25:26;;;;;;;1.00;0.80;;;;;;;;;;7388528;19;19998;-70
2022/09/06 02:27:53;;;;;;;1.00;0.85;;;;;;;;;;7389764;19;19995;-69
2022/09/06 02:30:19;;;;;;;1.02;0.85;;;;;;;;;;7387042;19;20062;-70
2022/09/06 02:32:56;;;;;;;1.45;0.90;;;;;;;;;;7389216;19;20016;-70
2022/09/06 02:35:21;;;;;;;0.95;0.93;;;;;;;;;;7388620;19;20009;-69
2022/09/06 02:37:47;;;;;;;2.20;1.13;;;;;;;;;;7388888;19;20452;-70
2022/09/06 02:40:13;;;;;;;0.73;0.73;;;;;;;;;;7386699;19;19999;-70
2022/09/06 02:42:39;;;;;;;0.95;0.90;;;;;;;;;;7386287;19;19997;-70
2022/09/06 02:45:05;;;;;;;0.98;0.98;;;;;;;;;;7387757;19;19994;-69
2022/09/06 02:47:30;;;;;;;0.70;0.70;;;;;;;;;;7389018;19;19995;-69
2022/09/06 02:49:55;;;;;;;0.70;0.70;;;;;;;;;;7386821;19;19998;-70
2022/09/06 02:52:21;;;;;;;1.58;1.00;;;;;;;;;;7388509;19;20039;-70
2022/09/06 02:54:46;;;;;;;4.13;1.20;;;;;;;;;;7387641;19;20023;-70
2022/09/06 02:57:11;;;;;;;0.68;0.68;;;;;;;;;;7387950;19;20020;-70
2022/09/06 02:59:36;;;;;;;1.10;1.00;;;;;;;;;;7385394;19;20019;-69
2022/09/06 03:02:02;;;;;;;1.45;0.70;;;;;;;;;;7382111;19;20002;-70
2022/09/06 03:04:27;;;;;;;0.98;0.98;;;;;;;;;;7383798;19;19999;-68
2022/09/06 03:06:53;;;;;;;2.30;1.02;;;;;;;;;;7384258;19;20030;-69
2022/09/06 03:09:18;;;;;;;0.80;0.80;;;;;;;;;;7383097;19;20010;-69
2022/09/06 03:11:43;;;;;;;1.40;1.30;;;;;;;;;;7382873;19;20467;-68
2022/09/06 03:14:09;;;;;;;1.50;1.20;;;;;;;;;;7388076;19;20017;-68
2022/09/06 03:16:35;;;;;;;3.40;0.90;;;;;;;;;;7385948;19;19999;-68
2022/09/06 03:19:01;;;;;;;1.13;1.02;;;;;;;;;;7382652;19;20017;-68
2022/09/06 03:21:26;;;;;;;1.60;1.30;;;;;;;;;;7378857;19;20472;-68
2022/09/06 03:23:51;;;;;;;4.32;1.58;;;;;;;;;;7380053;19;19999;-69
2022/09/06 03:26:17;;;;;;;1.23;1.10;;;;;;;;;;7380865;19;20005;-67
2022/09/06 03:28:42;;;;;;;1.23;1.13;;;;;;;;;;7382245;19;20003;-67
2022/09/06 03:31:08;;;;;;;1.67;1.10;;;;;;;;;;7383632;19;20002;-67
2022/09/06 03:33:34;;;;;;;2.47;1.10;;;;;;;;;;7385703;19;19995;-67
2022/09/06 03:36:01;;;;;;;2.33;1.27;;;;;;;;;;7386259;19;20019;-67
2022/09/06 03:38:27;;;;;;;0.77;0.77;;;;;;;;;;7385788;19;20070;-67
2022/09/06 03:40:53;;;;;;;1.38;1.00;;;;;;;;;;7385288;19;20511;-67
2022/09/06 03:43:20;;;;;;;1.17;1.08;;;;;;;;;;7389168;19;20059;-67
2022/09/06 03:45:47;;;;;;;1.67;1.40;;;;;;;;;;7387784;19;19998;-67
2022/09/06 03:48:13;;;;;;;1.50;1.20;;;;;;;;;;7388025;19;20021;-68
2022/09/06 03:50:46;;;;;;;1.38;1.02;;;;;;;;;;7386295;19;20030;-67
2022/09/06 03:53:11;;;;;;;1.83;1.23;;;;;;;;;;7389593;19;19998;-67
2022/09/06 03:55:37;;;;;;;3.35;1.85;;;;;;;;;;7392456;19;20401;-67
2022/09/06 03:58:02;;;;;;;1.13;0.95;;;;;;;;;;7394429;19;19998;-67
2022/09/06 04:00:28;;;;;;;2.50;1.40;;;;;;;;;;7391595;19;20003;-67
2022/09/06 04:02:53;;;;;;;1.90;1.13;;;;;;;;;;7393126;19;20076;-67
2022/09/06 04:05:18;;;;;;;2.00;1.50;;;;;;;;;;7388341;19;20471;-67
2022/09/06 04:07:43;;;;;;;1.15;1.08;;;;;;;;;;7386497;19;20497;-68
2022/09/06 04:10:09;;;;;;;1.80;1.45;;;;;;;;;;7387733;19;20062;-68
2022/09/06 04:12:34;;;;;;;2.25;1.02;;;;;;;;;;7387739;19;20074;-68
2022/09/06 04:15:00;;;;;;;1.40;1.05;;;;;;;;;;7386906;19;20027;-67
2022/09/06 04:17:25;;;;;;;3.60;1.40;;;;;;;;;;7387570;19;19998;-68
2022/09/06 04:19:51;;;;;;;1.55;1.08;;;;;;;;;;7388942;19;20026;-67
2022/09/06 04:22:16;;;;;;;1.65;1.10;;;;;;;;;;7389571;19;19998;-67
2022/09/06 04:24:41;;;;;;;1.67;1.38;;;;;;;;;;7390320;19;20397;-67
2022/09/06 04:27:06;;;;;;;0.93;0.85;;;;;;;;;;7395466;19;19990;-67
2022/09/06 04:29:32;;;;;;;1.45;1.20;;;;;;;;;;7393987;19;19998;-69
2022/09/06 04:31:57;;;;;;;1.30;1.10;;;;;;;;;;7394815;19;20002;-69
2022/09/06 04:34:22;;;;;;;0.90;0.90;;;;;;;;;;7331803;19;20028;-67
2022/09/06 04:36:48;;;;;;;1.92;1.30;;;;;;;;;;7395609;19;19994;-68
2022/09/06 04:39:13;;;;;;;1.80;1.30;;;;;;;;;;7395885;19;20062;-68
2022/09/06 04:41:38;;;;;;;1.42;1.17;;;;;;;;;;7391955;19;20015;-67
2022/09/06 04:44:04;;;;;;;1.52;1.38;;;;;;;;;;7395243;19;19991;-67
2022/09/06 04:46:29;;;;;;;1.45;1.30;;;;;;;;;;7393889;19;19994;-69
2022/09/06 04:48:55;;;;;;;1.15;1.05;;;;;;;;;;7395912;19;19991;-68
2022/09/06 04:51:22;;;;;;;1.08;0.98;;;;;;;;;;7395051;19;20102;-67
2022/09/06 04:53:47;;;;;;;1.70;0.98;;;;;;;;;;7391215;19;19999;-67
2022/09/06 04:56:18;;;;;;;1.23;1.13;;;;;;;;;;7395321;19;20007;-67
2022/09/06 04:58:45;;;;;;;;;;;;;;;;;;7391638;19;20358;-67
2022/09/06 05:01:10;;;;;;;1.05;0.90;;;;;;;;;;7389496;19;19972;-67
2022/09/06 05:03:36;;;;;;;1.20;1.10;;;;;;;;;;7391308;19;20360;-67
2022/09/06 05:06:20;;;;;;;1.42;1.00;;;;;;;;;;7390110;19;19994;-68
2022/09/06 05:08:45;;;;;;;1.40;1.30;;;;;;;;;;7392944;19;20002;-67
2022/09/06 05:11:11;;;;;;;1.05;0.98;;;;;;;;;;7390766;19;20470;-67
2022/09/06 05:13:37;;;;;;;1.77;1.08;;;;;;;;;;7389666;19;20003;-67
2022/09/06 05:16:04;;;;;;;2.08;1.30;;;;;;;;;;7391053;19;20361;-67
2022/09/06 05:18:30;;;;;;;1.42;1.25;;;;;;;;;;7391297;19;20006;-67
2022/09/06 05:20:56;;;;;;;1.15;1.05;;;;;;;;;;7389580;19;20344;-67
2022/09/06 05:23:21;;;;;;;1.20;1.10;;;;;;;;;;7388289;19;20002;-68
2022/09/06 05:25:48;;;;;;;1.23;1.13;;;;;;;;;;7390038;19;20002;-68
2022/09/06 05:28:14;;;;;;;1.95;1.25;;;;;;;;;;7390394;19;20002;-68
2022/09/06 05:30:40;;;;;;;1.33;1.00;;;;;;;;;;7389643;19;20002;-67
2022/09/06 05:33:06;;;;;;;1.55;1.08;;;;;;;;;;7389812;19;20028;-67
2022/09/06 05:35:32;;;;;;;1.63;1.20;;;;;;;;;;7388840;19;19998;-67
2022/09/06 05:37:57;;;;;;;2.33;1.30;;;;;;;;;;7387852;19;20069;-67
2022/09/06 05:40:22;;;;;;;1.45;1.20;;;;;;;;;;7388943;19;20075;-67
2022/09/06 05:42:48;;;;;;;1.13;1.02;;;;;;;;;;7390745;19;20384;-68
2022/09/06 05:45:13;;;;;;;1.10;1.00;;;;;;;;;;7312400;19;20003;-72
2022/09/06 05:47:38;;;;;;;1.30;1.10;;;;;;;;;;7381773;19;20090;-70
2022/09/06 05:50:05;;;;;;;1.55;1.10;;;;;;;;;;7391508;19;20002;-71
2022/09/06 05:52:32;;;;;;;1.15;1.05;;;;;;;;;;7390371;19;20006;-70
2022/09/06 05:54:58;;;;;;;2.47;1.27;;;;;;;;;;7391854;19;19998;-71
2022/09/06 05:57:23;;;;;;;4.05;1.38;;;;;;;;;;7391571;19;20366;-71
2022/09/06 05:59:48;;;;;;;0.80;0.80;;;;;;;;;;7390083;19;20023;-71
2022/09/06 06:02:14;;;;;;;2.05;1.38;;;;;;;;;;7387206;19;20464;-71
2022/09/06 06:04:39;;;;;;;1.75;1.25;;;;;;;;;;7391501;19;20380;-70
2022/09/06 06:07:04;;;;;;;1.65;1.20;;;;;;;;;;7392163;19;20477;-72
2022/09/06 06:09:30;;;;;;;0.95;0.95;;;;;;;;;;7393005;19;20330;-72
2022/09/06 06:11:55;;;;;;;0.95;0.90;;;;;;;;;;7389107;19;20556;-72
2022/09/06 06:14:20;;;;;;;1.52;1.10;;;;;;;;;;7388283;19;20010;-71
2022/09/06 06:16:46;;;;;;;2.03;1.45;;;;;;;;;;7390192;19;20030;-72
2022/09/06 06:19:11;;;;;;;1.13;1.02;;;;;;;;;;7392294;19;20347;-72
2022/09/06 06:21:37;;;;;;;1.10;1.00;;;;;;;;;;7387360;19;20026;-72
2022/09/06 06:24:05;;;;;;;1.98;1.20;;;;;;;;;;7388176;19;20007;-72
2022/09/06 06:26:32;;;;;;;2.03;1.20;;;;;;;;;;7391481;19;20041;-72
2022/09/06 06:29:00;;;;;;;1.15;1.00;;;;;;;;;;7390502;19;20480;-72
2022/09/06 06:31:26;;;;;;;1.17;1.08;;;;;;;;;;7391063;19;20023;-72
2022/09/06 06:33:58;;;;;;;1.02;0.90;;;;;;;;;;7384671;19;20019;-72
2022/09/06 06:36:26;;;;;;;1.45;1.08;;;;;;;;;;7388444;19;20476;-73
2022/09/06 06:38:54;;;;;;;1.20;1.10;;;;;;;;;;7388851;19;20030;-72
2022/09/06 06:41:25;;;;;;;1.10;0.95;;;;;;;;;;7390212;19;20082;-71
2022/09/06 06:43:55;;;;;;;0.95;0.85;;;;;;;;;;7389466;19;20439;-72
2022/09/06 06:46:23;;;;;;;1.17;0.75;;;;;;;;;;7387518;19;19999;-72
2022/09/06 06:48:53;;;;;;;2.05;1.27;;;;;;;;;;7390645;19;20013;-73
2022/09/06 06:51:19;;;;;;;1.02;1.02;;;;;;;;;;7388418;19;20090;-72
2022/09/06 06:53:46;;;;;;;2.78;1.67;;;;;;;;;;7389085;19;20002;-71
2022/09/06 06:56:23;;;;;;;2.15;1.13;;;;;;;;;;7389475;19;20324;-71
2022/09/06 06:58:51;;;;;;;1.77;1.05;;;;;;;;;;7389640;19;20003;-72
2022/09/06 07:01:19;;;;;;;1.77;1.30;;;;;;;;;;7389823;19;20006;-72
2022/09/06 07:03:45;;;;;;;1.15;1.05;;;;;;;;;;7387206;19;20104;-71
2022/09/06 07:06:11;;;;;;;1.30;1.20;;;;;;;;;;7390356;19;20026;-71
2022/09/06 07:08:37;;;;;;;1.23;1.10;;;;;;;;;;7389521;19;20023;-71
2022/09/06 07:11:04;;;;;;;1.95;1.27;;;;;;;;;;7389543;19;20003;-71
2022/09/06 07:13:30;;;;;;;1.80;1.27;;;;;;;;;;7391688;19;20612;-71
2022/09/06 07:16:12;;;;;;;1.70;1.20;;;;;;;;;;7386674;19;20315;-71
2022/09/06 07:18:40;;;;;;;1.55;1.15;;;;;;;;;;7388134;19;19999;-72
2022/09/06 07:21:11;;;;;;;1.88;1.25;;;;;;;;;;7387092;19;20358;-71
2022/09/06 07:23:36;;;;;;;;;;;;;;;;;;7386319;19;20024;-72
2022/09/06 07:26:01;;;;;;;1.63;1.25;;;;;;;;;;7389427;19;20332;-71
2022/09/06 07:28:27;;;;;;;1.48;1.02;;;;;;;;;;7390479;19;20021;-72
2022/09/06 07:30:54;;;;;;;1.20;1.10;;;;;;;;;;7397212;19;20006;-71
2022/09/06 07:33:19;;;;;;;1.10;1.08;;;;;;;;;;7397488;19;20006;-72
2022/09/06 07:36:04;;;;;;;2.20;1.15;;;;;;;;;;7394720;19;20014;-71
2022/09/06 07:38:30;;;;;;;1.98;1.17;;;;;;;;;;7396438;19;20023;-71
2022/09/06 07:41:01;;;;;;;1.30;1.20;;;;;;;;;;7394678;19;20074;-72
2022/09/06 07:43:27;;;;;;;1.38;0.93;;;;;;;;;;7396705;19;20078;-72
2022/09/06 07:46:05;;;;;;;1.13;1.00;;;;;;;;;;7394598;19;20468;-72
2022/09/06 07:48:33;;;;;;;2.38;1.48;;;;;;;;;;7396146;19;20023;-71
2022/09/06 07:51:19;;;;;;;1.13;1.02;;;;;;;;;;7395434;19;20406;-72
2022/09/06 07:53:52;;;;;;;1.20;1.10;;;;;;;;;;7393799;19;20018;-72
2022/09/06 07:56:20;;;;;;;1.10;1.10;;;;;;;;;;7395079;19;20019;-72
2022/09/06 07:58:46;;;;;;;1.13;1.10;;;;;;;;;;7394419;19;20006;-72
2022/09/06 08:01:47;;;;;;;1.50;1.10;;;;;;;;;;7392540;19;20523;-72
2022/09/06 08:04:13;;;;;;;1.30;1.20;;;;;;;;;;7391476;19;20007;-72
2022/09/06 08:06:47;;;;;;;1.42;1.10;;;;;;;;;;7395060;19;19998;-72
2022/09/06 08:09:12;;;;;;;1.63;1.23;;;;;;;;;;7395562;19;20078;-73
2022/09/06 08:11:39;;;;;;;1.73;1.30;;;;;;;;;;7391864;19;20028;-71
2022/09/06 08:14:07;;;;;;;2.45;1.35;;;;;;;;;;7393223;19;20009;-72
2022/09/06 08:16:34;;;;;;;1.15;1.08;;;;;;;;;;7395093;19;19994;-72
2022/09/06 08:19:02;;;;;;;2.78;1.63;;;;;;;;;;7395440;19;20018;-72
2022/09/06 08:21:31;;;;;;;1.75;1.38;;;;;;;;;;7391727;19;20010;-71
2022/09/06 08:24:02;;;;;;;1.88;1.30;;;;;;;;;;7392524;19;20058;-72
2022/09/06 08:26:28;;;;;;;1.75;1.30;;;;;;;;;;7394823;19;20738;-72
2022/09/06 08:28:57;;;;;;;1.92;1.30;;;;;;;;;;7395608;19;20010;-72
2022/09/06 08:31:22;;;;;;;1.80;1.70;;;;;;;;;;7394900;19;20003;-72
2022/09/06 08:33:48;;;;;;;2.33;1.58;;;;;;;;;;7392606;19;20420;-70
2022/09/06 08:36:14;;;;;;;1.73;1.35;;;;;;;;;;7391991;19;20003;-73
2022/09/06 08:38:40;;;;;;;2.10;1.40;;;;;;;;;;7394609;19;20491;-72
2022/09/06 08:41:12;;;;;;;1.60;1.25;;;;;;;;;;7391163;19;20032;-73
2022/09/06 08:43:38;;;;;;;1.42;1.30;;;;;;;;;;7391680;19;20006;-73
2022/09/06 08:46:06;;;;;;;1.75;1.38;;;;;;;;;;7393430;19;20539;-74
2022/09/06 08:48:34;;;;;;;1.52;1.30;;;;;;;;;;7393899;19;20002;-73
2022/09/06 08:51:30;;;;;;;2.08;1.30;;;;;;;;;;7392453;19;20040;-71
2022/09/06 08:54:04;;;;;;;1.40;1.30;;;;;;;;;;7390075;19;20015;-71
2022/09/06 08:56:38;;;;;;;2.10;1.27;;;;;;;;;;7393395;19;20002;-72
2022/09/06 08:59:05;;;;;;;1.55;1.33;;;;;;;;;;7394916;19;20014;-72
2022/09/06 09:01:40;;;;;;;2.20;1.23;;;;;;;;;;7393682;19;20106;-73
2022/09/06 09:04:12;;;;;;;1.55;1.33;;;;;;;;;;7393633;19;20006;-73
2022/09/06 09:06:37;;;;;;;2.58;1.20;;;;;;;;;;7391548;19;20440;-71
2022/09/06 09:09:06;;;;;;;2.08;1.42;;;;;;;;;;7392356;19;20006;-72
2022/09/06 09:11:35;;;;;;;1.42;1.20;;;;;;;;;;7392613;19;20002;-72
2022/09/06 09:14:21;;;;;;;1.50;1.38;;;;;;;;;;7389727;19;20387;-73
2022/09/06 09:16:55;;;;;;;1.65;1.23;;;;;;;;;;7393220;19;20069;-73
2022/09/06 09:19:20;;;;;;;1.45;1.30;;;;;;;;;;7394052;19;20082;-72
2022/09/06 09:21:46;;;;;;;1.90;1.60;;;;;;;;;;7389367;19;20006;-72
2022/09/06 09:24:14;;;;;;;1.60;1.20;;;;;;;;;;7391529;19;20493;-72
2022/09/06 09:26:58;;;;;;;3.67;1.58;;;;;;;;;;7393131;19;19999;-72
2022/09/06 09:29:23;;;;;;;2.17;1.40;;;;;;;;;;7394033;19;19999;-73
2022/09/06 09:31:52;;;;;;;2.35;1.40;;;;;;;;;;7387958;19;20052;-72
2022/09/06 09:34:35;;;;;;;1.00;1.00;;;;;;;;;;7391760;19;20025;-72
2022/09/06 09:37:23;;;;;;;1.40;1.30;;;;;;;;;;7392684;19;20019;-72
2022/09/06 09:39:51;;;;;;;1.48;1.38;;;;;;;;;;7391001;19;20006;-72
2022/09/06 09:42:33;;;;;;;2.72;1.40;;;;;;;;;;7391976;19;20002;-72
2022/09/06 09:44:59;;;;;;;1.92;1.20;;;;;;;;;;7392802;19;20475;-71
2022/09/06 09:47:29;;;;;;;2.15;1.10;;;;;;;;;;7394398;19;20002;-72
2022/09/06 09:49:55;;;;;;;1.42;1.33;;;;;;;;;;7390039;19;20369;-72
2022/09/06 09:52:29;;;;;;;1.45;1.35;;;;;;;;;;7389983;19;20033;-72
2022/09/06 09:54:59;;;;;;;2.05;1.30;;;;;;;;;;7391721;19;20458;-72
2022/09/06 09:57:25;;;;;;;3.90;1.35;;;;;;;;;;7394118;19;20020;-72
2022/09/06 10:00:05;;;;;;;2.25;1.08;;;;;;;;;;7391064;19;20370;-72
2022/09/06 10:02:34;;;;;;;;;;;;;;;;;;7390924;19;20030;-72
2022/09/06 10:05:10;;;;;;;1.85;1.50;;;;;;;;;;7390947;19;19915;-72
2022/09/06 10:07:44;;;;;;;2.17;1.45;;;;;;;;;;7390282;19;19998;-72
2022/09/06 10:10:13;;;;;;;1.98;1.30;;;;;;;;;;7389834;19;20022;-73
2022/09/06 10:12:41;;;;;;;2.28;1.55;;;;;;;;;;7391878;19;20385;-73
2022/09/06 10:15:09;;;;;;;1.30;1.13;;;;;;;;;;7389605;19;20471;-74
2022/09/06 10:17:37;;;;;;;1.85;1.50;;;;;;;;;;7387227;19;20432;-73
2022/09/06 10:20:08;;;;;;;2.92;1.58;;;;;;;;;;7388371;19;20118;-74
2022/09/06 10:22:42;;;;;;;2.50;1.42;;;;;;;;;;7389127;19;20024;-72
2022/09/06 10:25:26;;;;;;;1.90;1.48;;;;;;;;;;7389846;19;20009;-74
2022/09/06 10:28:10;;;;;;;1.40;1.30;;;;;;;;;;7389311;19;19995;-73
2022/09/06 10:30:41;;;;;;;2.08;1.50;;;;;;;;;;7390976;19;20003;-74
2022/09/06 10:33:31;;;;;;;1.35;1.25;;;;;;;;;;7391281;19;19999;-75
2022/09/06 10:35:59;;;;;;;2.40;1.38;;;;;;;;;;7388847;19;19994;-74
2022/09/06 10:38:37;;;;;;;2.05;1.42;;;;;;;;;;7388397;19;20034;-73
2022/09/06 10:41:20;;;;;;;1.85;1.20;;;;;;;;;;7390453;19;19999;-73
2022/09/06 10:44:02;;;;;;;2.15;1.30;;;;;;;;;;7387257;19;20509;-73
2022/09/06 10:46:29;;;;;;;1.88;1.30;;;;;;;;;;7389799;19;20002;-73
2022/09/06 10:48:54;;;;;;;1.90;1.30;;;;;;;;;;7385640;19;20039;-68
2022/09/06 10:51:31;;;;;;;2.38;1.42;;;;;;;;;;7390087;19;20007;-69
2022/09/06 10:54:00;;;;;;;1.10;1.00;;;;;;;;;;7389738;19;20043;-69
2022/09/06 10:56:44;;;;;;;2.25;1.40;;;;;;;;;;7389784;19;20013;-69
2022/09/06 10:59:31;;;;;;;2.60;1.48;;;;;;;;;;7389572;19;20015;-67
2022/09/06 11:02:15;;;;;;;1.48;1.20;;;;;;;;;;7386589;19;20005;-67
2022/09/06 11:04:44;;;;;;;2.80;1.50;;;;;;;;;;7397125;19;19998;-68
2022/09/06 11:07:22;;;;;;;1.48;1.38;;;;;;;;;;7396901;19;20316;-68
2022/09/06 11:09:53;;;;;;;2.15;1.50;;;;;;;;;;7395635;19;20770;-69
2022/09/06 11:12:34;;;;;;;1.83;1.23;;;;;;;;;;7392818;19;20006;-68
2022/09/06 11:15:05;;;;;;;1.70;1.30;;;;;;;;;;7395222;19;20002;-69
2022/09/06 11:17:45;;;;;;;1.17;1.08;;;;;;;;;;7398432;19;19990;-69
2022/09/06 11:20:36;;;;;;;1.85;1.42;;;;;;;;;;7395077;19;20002;-68
2022/09/06 11:23:08;;;;;;;2.08;1.33;;;;;;;;;;7395319;19;20074;-68
2022/09/06 11:26:07;;;;;;;1.73;1.40;;;;;;;;;;7396460;19;20349;-69
2022/09/06 11:28:42;;;;;;;2.22;1.20;;;;;;;;;;7396286;19;19998;-68
2022/09/06 11:31:12;;;;;;;1.45;1.25;;;;;;;;;;7396646;19;20002;-68
2022/09/06 11:33:40;;;;;;;2.08;1.30;;;;;;;;;;7393964;19;20005;-68
2022/09/06 11:36:35;;;;;;;9.48;1.98;;;;;;;;;;7395701;19;20010;-68
2022/09/06 11:39:03;;;;;;;1.35;1.20;;;;;;;;;;7397162;19;20499;-68
2022/09/06 11:41:38;;;;;;;1.50;1.40;;;;;;;;;;7395816;19;20463;-68
2022/09/06 11:44:05;;;;;;;1.90;1.55;;;;;;;;;;7394638;19;20009;-68
2022/09/06 11:46:34;;;;;;;1.58;1.33;;;;;;;;;;7395868;19;20006;-69
2022/09/06 11:49:03;;;;;;;1.30;1.20;;;;;;;;;;7396529;19;20009;-68
2022/09/06 11:51:33;;;;;;;1.58;1.38;;;;;;;;;;7397401;19;20002;-68
2022/09/06 11:53:58;;;;;;;;;;;;;;;;;;7395489;19;19998;-66
2022/09/06 11:56:27;;;;;;;2.93;1.30;;;;;;;;;;7397598;19;19914;-68
2022/09/06 11:59:00;;;;;;;2.17;1.55;;;;;;;;;;7394285;19;20259;-68
2022/09/06 12:01:25;;;;;;;1.40;1.23;;;;;;;;;;7394832;19;20014;-68
2022/09/06 12:03:51;;;;;;;1.40;1.17;;;;;;;;;;7394279;19;20003;-68
2022/09/06 12:06:19;;;;;;;1.63;1.42;;;;;;;;;;7394427;19;20778;-67
2022/09/06 12:08:51;;;;;;;1.50;1.40;;;;;;;;;;7396525;19;20069;-68
2022/09/06 12:11:45;;;;;;;3.40;1.30;;;;;;;;;;7396386;19;20503;-68
2022/09/06 12:14:32;;;;;;;2.53;1.40;;;;;;;;;;7391980;19;20466;-68
2022/09/06 12:16:57;;;;;;;1.30;1.20;;;;;;;;;;7396317;19;20474;-68
2022/09/06 12:19:45;;;;;;;1.27;1.17;;;;;;;;;;7396924;19;19994;-68
2022/09/06 12:22:45;;;;;;;0.90;0.90;;;;;;;;;;7390954;19;19998;-68
2022/09/06 12:25:33;;;;;;;1.50;1.30;;;;;;;;;;7390232;19;19998;-68
2022/09/06 12:28:08;;;;;;;1.30;1.20;;;;;;;;;;7394526;19;20329;-68
2022/09/06 12:30:36;;;;;;;1.58;1.23;;;;;;;;;;7392927;19;20363;-68
2022/09/06 12:33:09;;;;;;;1.60;1.25;;;;;;;;;;7395640;19;19998;-68
2022/09/06 12:35:35;;;;;;;1.90;1.40;;;;;;;;;;7391893;19;19994;-68
2022/09/06 12:38:05;;;;;;;1.58;1.20;;;;;;;;;;7391888;19;20385;-67
2022/09/06 12:40:57;;;;;;;2.20;1.30;;;;;;;;;;7392814;19;19999;-69
2022/09/06 12:43:23;;;;;;;2.17;1.35;;;;;;;;;;7395954;19;19999;-68
2022/09/06 12:45:50;;;;;;;1.40;1.30;;;;;;;;;;7393025;19;20318;-68
2022/09/06 12:48:34;;;;;;;1.40;1.30;;;;;;;;;;7393770;19;20171;-68
2022/09/06 12:51:18;;;;;;;1.30;1.20;;;;;;;;;;7394194;19;19998;-68
2022/09/06 12:53:50;;;;;;;1.35;1.27;;;;;;;;;;7389782;19;20484;-68
2022/09/06 12:56:19;;;;;;;1.27;1.17;;;;;;;;;;7391408;19;20033;-68
2022/09/06 12:58:44;;;;;;;1.23;1.13;;;;;;;;;;7391790;19;19999;-68
2022/09/06 13:01:13;;;;;;;1.90;1.38;;;;;;;;;;7391121;19;20540;-68
2022/09/06 13:03:48;;;;;;;1.65;1.40;;;;;;;;;;7391442;19;20458;-68
2022/09/06 13:06:20;;;;;;;1.27;1.13;;;;;;;;;;7391912;19;19999;-68
2022/09/06 13:08:52;;;;;;;1.80;1.20;;;;;;;;;;7391830;19;20007;-68
2022/09/06 13:11:36;;;;;;;1.35;1.20;;;;;;;;;;7393222;19;20014;-68
2022/09/06 13:14:10;;;;;;;1.48;1.05;;;;;;;;;;7391599;19;20002;-68
2022/09/06 13:16:41;;;;;;;1.63;1.20;;;;;;;;;;7394232;19;20006;-68
2022/09/06 13:19:28;;;;;;;1.55;1.25;;;;;;;;;;7394009;19;20491;-67
2022/09/06 13:21:54;;;;;;;1.42;1.10;;;;;;;;;;7389620;19;20118;-67
2022/09/06 13:24:41;;;;;;;1.42;1.17;;;;;;;;;;7391689;19;20010;-67
2022/09/06 13:27:34;;;;;;;1.60;1.40;;;;;;;;;;7391152;19;20026;-68
2022/09/06 13:30:07;;;;;;;2.35;1.15;;;;;;;;;;7389622;19;20361;-68
2022/09/06 13:32:34;;;;;;;2.15;1.20;;;;;;;;;;7390120;19;20006;-67
2022/09/06 13:35:00;;;;;;;1.80;1.20;;;;;;;;;;7390588;19;20483;-68
2022/09/06 13:37:28;;;;;;;2.10;1.30;;;;;;;;;;7391509;19;20006;-67
2022/09/06 13:39:54;;;;;;;0.93;0.90;;;;;;;;;;7390811;19;20037;-67
2022/09/06 13:42:35;;;;;;;1.42;1.30;;;;;;;;;;7387229;19;20006;-68
2022/09/06 13:45:25;;;;;;;2.58;1.30;;;;;;;;;;7391721;19;20009;-68
2022/09/06 13:47:51;;;;;;;1.63;1.30;;;;;;;;;;7390534;19;20366;-68
2022/09/06 13:50:16;;;;;;;1.95;1.60;;;;;;;;;;7389612;19;20054;-68
2022/09/06 13:52:41;;;;;;;1.88;1.30;;;;;;;;;;7392459;19;20603;-67
2022/09/06 13:55:07;;;;;;;1.60;1.50;;;;;;;;;;7391971;19;19995;-68
2022/09/06 13:57:32;;;;;;;1.55;1.40;;;;;;;;;;7391371;19;20344;-68
2022/09/06 13:59:58;;;;;;;1.65;1.35;;;;;;;;;;7390178;19;20015;-68
2022/09/06 14:02:23;;;;;;;1.63;1.38;;;;;;;;;;7385354;19;20022;-68
2022/09/06 14:04:49;;;;;;;1.50;1.35;;;;;;;;;;7389210;19;19998;-68
2022/09/06 14:07:14;;;;;;;2.83;1.45;;;;;;;;;;7391553;19;20030;-68
2022/09/06 14:09:39;;;;;;;1.60;1.42;;;;;;;;;;7389452;19;20586;-67
2022/09/06 14:12:05;;;;;;;1.52;1.23;;;;;;;;;;7387434;19;20369;-67
2022/09/06 14:14:32;;;;;;;1.40;1.30;;;;;;;;;;7391522;19;19998;-67
2022/09/06 14:16:58;;;;;;;1.98;1.33;;;;;;;;;;7391602;19;20006;-67
2022/09/06 14:19:23;;;;;;;2.05;1.30;;;;;;;;;;7390027;19;20024;-68
2022/09/06 14:21:49;;;;;;;1.40;1.30;;;;;;;;;;7389980;19;20002;-67
2022/09/06 14:24:14;;;;;;;1.33;1.17;;;;;;;;;;7388261;19;20003;-67
2022/09/06 14:26:39;;;;;;;1.23;1.10;;;;;;;;;;7391500;19;19994;-67
2022/09/06 14:29:05;;;;;;;1.52;1.30;;;;;;;;;;7391547;19;20054;-67
2022/09/06 14:31:31;;;;;;;1.83;1.42;;;;;;;;;;7391203;19;20465;-67
2022/09/06 14:33:57;;;;;;;2.63;1.60;;;;;;;;;;7389328;19;20007;-68
2022/09/06 14:36:25;;;;;;;1.25;1.10;;;;;;;;;;7390892;19;19999;-67
2022/09/06 14:38:52;;;;;;;1.10;1.05;;;;;;;;;;7390262;19;20006;-67
2022/09/06 14:41:18;;;;;;;1.35;1.10;;;;;;;;;;7388768;19;20345;-69
2022/09/06 14:43:48;;;;;;;1.58;1.20;;;;;;;;;;7388370;19;20009;-69
2022/09/06 14:46:16;;;;;;;3.63;1.40;;;;;;;;;;7389953;19;20014;-67
2022/09/06 14:48:43;;;;;;;1.38;1.17;;;;;;;;;;7390583;19;20082;-68
2022/09/06 14:51:10;;;;;;;2.28;1.40;;;;;;;;;;7388889;19;20074;-67
2022/09/06 14:53:41;;;;;;;2.13;1.10;;;;;;;;;;7386161;19;19999;-66
2022/09/06 14:56:07;;;;;;;;;;;;;;;;;;7389866;19;20018;-66
2022/09/06 14:58:33;;;;;;;1.83;1.17;;;;;;;;;;7389869;19;20229;-67
2022/09/06 15:01:18;;;;;;;1.60;1.27;;;;;;;;;;7388927;19;20031;-67
2022/09/06 15:03:47;;;;;;;2.40;1.40;;;;;;;;;;7389411;19;20023;-67
2022/09/06 15:06:13;;;;;;;1.77;1.30;;;;;;;;;;7390691;19;20019;-67